sensor_id;sensor_type;location;lat;lon;timestamp;P1;durP1;ratioP1;P2;durP2;ratioP2
20861;SDS011;10591;52.532;13.348;2024-01-15T00:00:25;14.60;;;9.60;;
20861;SDS011;10591;52.532;13.348;2024-01-15T00:02:56;15.37;;;10.10;;
20861;SDS011;10591;52.532;13.348;2024-01-15T00:05:27;14.80;;;10.63;;
20861;SDS011;10591;52.532;13.348;2024-01-15T00:07:57;14.83;;;10.47;;
20861;SDS011;10591;52.532;13.348;2024-01-15T00:10:28;13.67;;;9.83;;
20861;SDS011;10591;52.532;13.348;2024-01-15T00:12:59;14.13;;;9.90;;
20861;SDS011;10591;52.532;13.348;2024-01-15T00:15:30;15.13;;;10.50;;
20861;SDS011;10591;52.532;13.348;2024-01-15T00:18:01;14.27;;;9.90;;
20861;SDS011;10591;52.532;13.348;2024-01-15T00:20:32;16.43;;;10.23;;
20861;SDS011;10591;52.532;13.348;2024-01-15T00:23:05;13.97;;;10.13;;
20861;SDS011;10591;52.532;13.348;2024-01-15T00:25:36;15.57;;;10.40;;
20861;SDS011;10591;52.532;13.348;2024-01-15T00:28:06;15.40;;;10.13;;
20861;SDS011;10591;52.532;13.348;2024-01-15T00:30:36;14.77;;;9.70;;
20861;SDS011;10591;52.532;13.348;2024-01-15T00:33:07;14.65;;;9.93;;
20861;SDS011;10591;52.532;13.348;2024-01-15T00:35:40;14.40;;;9.67;;
20861;SDS011;10591;52.532;13.348;2024-01-15T00:38:11;14.47;;;9.70;;
20861;SDS011;10591;52.532;13.348;2024-01-15T00:40:43;15.13;;;9.77;;
20861;SDS011;10591;52.532;13.348;2024-01-15T00:43:16;14.47;;;9.47;;
20861;SDS011;10591;52.532;13.348;2024-01-15T00:45:49;15.10;;;10.45;;
20861;SDS011;10591;52.532;13.348;2024-01-15T00:48:19;12.73;;;9.17;;
20861;SDS011;10591;52.532;13.348;2024-01-15T00:50:51;15.13;;;10.00;;
20861;SDS011;10591;52.532;13.348;2024-01-15T00:53:23;13.67;;;10.20;;
20861;SDS011;10591;52.532;13.348;2024-01-15T00:55:56;13.03;;;9.53;;
20861;SDS011;10591;52.532;13.348;2024-01-15T00:58:27;14.83;;;9.87;;
20861;SDS011;10591;52.532;13.348;2024-01-15T01:00:58;15.25;;;9.85;;
20861;SDS011;10591;52.532;13.348;2024-01-15T01:03:28;15.13;;;9.60;;
20861;SDS011;10591;52.532;13.348;2024-01-15T01:05:59;14.57;;;9.17;;
20861;SDS011;10591;52.532;13.348;2024-01-15T01:08:29;13.87;;;9.90;;
20861;SDS011;10591;52.532;13.348;2024-01-15T01:11:00;14.53;;;10.00;;
20861;SDS011;10591;52.532;13.348;2024-01-15T01:13:31;15.57;;;9.30;;
20861;SDS011;10591;52.532;13.348;2024-01-15T01:16:02;16.33;;;9.80;;
20861;SDS011;10591;52.532;13.348;2024-01-15T01:18:33;14.77;;;9.63;;
20861;SDS011;10591;52.532;13.348;2024-01-15T01:21:05;15.37;;;10.00;;
20861;SDS011;10591;52.532;13.348;2024-01-15T01:23:36;16.17;;;10.80;;
20861;SDS011;10591;52.532;13.348;2024-01-15T01:26:06;17.15;;;10.38;;
20861;SDS011;10591;52.532;13.348;2024-01-15T01:28:37;15.07;;;10.23;;
20861;SDS011;10591;52.532;13.348;2024-01-15T01:31:07;16.13;;;10.20;;
20861;SDS011;10591;52.532;13.348;2024-01-15T01:33:38;16.77;;;10.03;;
20861;SDS011;10591;52.532;13.348;2024-01-15T01:36:09;18.90;;;11.20;;
20861;SDS011;10591;52.532;13.348;2024-01-15T01:38:40;17.97;;;11.00;;
20861;SDS011;10591;52.532;13.348;2024-01-15T01:41:12;17.47;;;10.77;;
20861;SDS011;10591;52.532;13.348;2024-01-15T01:43:44;17.60;;;10.68;;
20861;SDS011;10591;52.532;13.348;2024-01-15T01:46:14;17.47;;;10.03;;
20861;SDS011;10591;52.532;13.348;2024-01-15T01:48:47;16.60;;;10.37;;
20861;SDS011;10591;52.532;13.348;2024-01-15T01:51:17;17.33;;;10.67;;
20861;SDS011;10591;52.532;13.348;2024-01-15T01:53:50;18.00;;;11.07;;
20861;SDS011;10591;52.532;13.348;2024-01-15T01:56:21;19.00;;;10.80;;
20861;SDS011;10591;52.532;13.348;2024-01-15T01:58:52;19.80;;;12.00;;
20861;SDS011;10591;52.532;13.348;2024-01-15T02:01:23;18.83;;;10.63;;
20861;SDS011;10591;52.532;13.348;2024-01-15T02:03:53;18.57;;;10.77;;
20861;SDS011;10591;52.532;13.348;2024-01-15T02:06:25;18.30;;;10.63;;
20861;SDS011;10591;52.532;13.348;2024-01-15T02:08:56;19.00;;;11.27;;
20861;SDS011;10591;52.532;13.348;2024-01-15T02:11:27;17.20;;;10.87;;
20861;SDS011;10591;52.532;13.348;2024-01-15T02:13:57;17.07;;;10.93;;
20861;SDS011;10591;52.532;13.348;2024-01-15T02:16:28;15.83;;;9.87;;
20861;SDS011;10591;52.532;13.348;2024-01-15T02:18:58;15.93;;;9.47;;
20861;SDS011;10591;52.532;13.348;2024-01-15T02:21:29;16.33;;;10.17;;
20861;SDS011;10591;52.532;13.348;2024-01-15T02:24:01;15.20;;;9.23;;
20861;SDS011;10591;52.532;13.348;2024-01-15T02:26:32;15.37;;;9.60;;
20861;SDS011;10591;52.532;13.348;2024-01-15T02:29:07;14.97;;;8.67;;
20861;SDS011;10591;52.532;13.348;2024-01-15T02:31:39;13.73;;;8.13;;
20861;SDS011;10591;52.532;13.348;2024-01-15T02:34:10;14.93;;;8.07;;
20861;SDS011;10591;52.532;13.348;2024-01-15T02:36:41;15.40;;;8.63;;
20861;SDS011;10591;52.532;13.348;2024-01-15T02:39:12;13.43;;;8.30;;
20861;SDS011;10591;52.532;13.348;2024-01-15T02:41:42;12.83;;;7.83;;
20861;SDS011;10591;52.532;13.348;2024-01-15T02:44:13;14.23;;;7.70;;
20861;SDS011;10591;52.532;13.348;2024-01-15T02:46:43;12.93;;;7.80;;
20861;SDS011;10591;52.532;13.348;2024-01-15T02:49:14;13.70;;;7.63;;
20861;SDS011;10591;52.532;13.348;2024-01-15T02:51:44;13.60;;;7.60;;
20861;SDS011;10591;52.532;13.348;2024-01-15T02:54:15;11.70;;;6.83;;
20861;SDS011;10591;52.532;13.348;2024-01-15T02:56:46;11.27;;;7.33;;
20861;SDS011;10591;52.532;13.348;2024-01-15T02:59:16;12.70;;;7.20;;
20861;SDS011;10591;52.532;13.348;2024-01-15T03:01:47;10.50;;;7.00;;
20861;SDS011;10591;52.532;13.348;2024-01-15T03:04:18;11.23;;;7.03;;
20861;SDS011;10591;52.532;13.348;2024-01-15T03:06:48;10.60;;;7.03;;
20861;SDS011;10591;52.532;13.348;2024-01-15T03:09:19;11.07;;;7.20;;
20861;SDS011;10591;52.532;13.348;2024-01-15T03:11:50;10.73;;;7.07;;
20861;SDS011;10591;52.532;13.348;2024-01-15T03:14:20;12.03;;;6.67;;
20861;SDS011;10591;52.532;13.348;2024-01-15T03:16:53;11.30;;;7.13;;
20861;SDS011;10591;52.532;13.348;2024-01-15T03:19:25;11.27;;;6.63;;
20861;SDS011;10591;52.532;13.348;2024-01-15T03:21:56;8.17;;;6.07;;
20861;SDS011;10591;52.532;13.348;2024-01-15T03:24:27;9.93;;;6.50;;
20861;SDS011;10591;52.532;13.348;2024-01-15T03:26:57;10.30;;;6.77;;
20861;SDS011;10591;52.532;13.348;2024-01-15T03:29:28;12.10;;;7.60;;
20861;SDS011;10591;52.532;13.348;2024-01-15T03:31:59;12.37;;;6.50;;
20861;SDS011;10591;52.532;13.348;2024-01-15T03:34:29;10.10;;;6.00;;
20861;SDS011;10591;52.532;13.348;2024-01-15T03:37:00;10.60;;;6.57;;
20861;SDS011;10591;52.532;13.348;2024-01-15T03:39:31;8.60;;;6.40;;
20861;SDS011;10591;52.532;13.348;2024-01-15T03:42:02;9.17;;;6.10;;
20861;SDS011;10591;52.532;13.348;2024-01-15T03:44:32;9.90;;;6.10;;
20861;SDS011;10591;52.532;13.348;2024-01-15T03:47:03;12.97;;;6.43;;
20861;SDS011;10591;52.532;13.348;2024-01-15T03:49:37;9.43;;;6.10;;
20861;SDS011;10591;52.532;13.348;2024-01-15T03:52:08;10.93;;;6.17;;
20861;SDS011;10591;52.532;13.348;2024-01-15T03:54:38;13.30;;;6.00;;
20861;SDS011;10591;52.532;13.348;2024-01-15T03:57:09;9.47;;;6.13;;
20861;SDS011;10591;52.532;13.348;2024-01-15T03:59:40;9.27;;;5.17;;
20861;SDS011;10591;52.532;13.348;2024-01-15T04:02:11;10.27;;;5.87;;
20861;SDS011;10591;52.532;13.348;2024-01-15T04:04:42;11.33;;;6.10;;
20861;SDS011;10591;52.532;13.348;2024-01-15T04:07:13;10.80;;;5.90;;
20861;SDS011;10591;52.532;13.348;2024-01-15T04:09:44;10.07;;;6.53;;
20861;SDS011;10591;52.532;13.348;2024-01-15T04:12:14;11.48;;;5.65;;
20861;SDS011;10591;52.532;13.348;2024-01-15T04:14:45;9.10;;;5.83;;
20861;SDS011;10591;52.532;13.348;2024-01-15T04:17:15;10.50;;;6.10;;
20861;SDS011;10591;52.532;13.348;2024-01-15T04:19:46;8.27;;;5.40;;
20861;SDS011;10591;52.532;13.348;2024-01-15T04:22:17;9.00;;;5.00;;
20861;SDS011;10591;52.532;13.348;2024-01-15T04:24:47;8.43;;;5.60;;
20861;SDS011;10591;52.532;13.348;2024-01-15T04:27:18;10.73;;;4.93;;
20861;SDS011;10591;52.532;13.348;2024-01-15T04:29:49;8.23;;;5.07;;
20861;SDS011;10591;52.532;13.348;2024-01-15T04:32:19;10.23;;;5.20;;
20861;SDS011;10591;52.532;13.348;2024-01-15T04:34:50;9.37;;;5.00;;
20861;SDS011;10591;52.532;13.348;2024-01-15T04:37:22;8.20;;;5.20;;
20861;SDS011;10591;52.532;13.348;2024-01-15T04:39:52;7.23;;;4.63;;
20861;SDS011;10591;52.532;13.348;2024-01-15T04:42:24;9.63;;;4.70;;
20861;SDS011;10591;52.532;13.348;2024-01-15T04:44:55;8.07;;;4.57;;
20861;SDS011;10591;52.532;13.348;2024-01-15T04:47:27;6.60;;;4.23;;
20861;SDS011;10591;52.532;13.348;2024-01-15T04:49:57;7.37;;;4.73;;
20861;SDS011;10591;52.532;13.348;2024-01-15T04:52:30;8.23;;;4.20;;
20861;SDS011;10591;52.532;13.348;2024-01-15T04:55:00;7.43;;;4.23;;
20861;SDS011;10591;52.532;13.348;2024-01-15T04:57:31;9.50;;;4.67;;
20861;SDS011;10591;52.532;13.348;2024-01-15T05:00:02;9.33;;;4.03;;
20861;SDS011;10591;52.532;13.348;2024-01-15T05:02:33;12.13;;;4.10;;
20861;SDS011;10591;52.532;13.348;2024-01-15T05:05:04;8.07;;;3.83;;
20861;SDS011;10591;52.532;13.348;2024-01-15T05:07:36;9.57;;;4.00;;
20861;SDS011;10591;52.532;13.348;2024-01-15T05:10:07;6.23;;;3.57;;
20861;SDS011;10591;52.532;13.348;2024-01-15T05:12:37;7.00;;;3.23;;
20861;SDS011;10591;52.532;13.348;2024-01-15T05:15:08;7.70;;;3.70;;
20861;SDS011;10591;52.532;13.348;2024-01-15T05:17:39;7.97;;;3.47;;
20861;SDS011;10591;52.532;13.348;2024-01-15T05:20:10;7.03;;;3.27;;
20861;SDS011;10591;52.532;13.348;2024-01-15T05:22:41;6.60;;;3.60;;
20861;SDS011;10591;52.532;13.348;2024-01-15T05:25:11;6.37;;;3.30;;
20861;SDS011;10591;52.532;13.348;2024-01-15T05:27:42;6.57;;;3.53;;
20861;SDS011;10591;52.532;13.348;2024-01-15T05:30:13;6.20;;;3.37;;
20861;SDS011;10591;52.532;13.348;2024-01-15T05:32:44;4.47;;;3.03;;
20861;SDS011;10591;52.532;13.348;2024-01-15T05:35:14;7.40;;;3.10;;
20861;SDS011;10591;52.532;13.348;2024-01-15T05:37:45;8.47;;;3.13;;
20861;SDS011;10591;52.532;13.348;2024-01-15T05:40:16;8.67;;;3.20;;
20861;SDS011;10591;52.532;13.348;2024-01-15T05:42:46;7.23;;;2.90;;
20861;SDS011;10591;52.532;13.348;2024-01-15T05:45:17;5.43;;;3.03;;
20861;SDS011;10591;52.532;13.348;2024-01-15T05:47:47;6.57;;;2.90;;
20861;SDS011;10591;52.532;13.348;2024-01-15T05:50:18;3.67;;;2.60;;
20861;SDS011;10591;52.532;13.348;2024-01-15T05:52:49;8.37;;;2.70;;
20861;SDS011;10591;52.532;13.348;2024-01-15T05:55:19;8.07;;;3.07;;
20861;SDS011;10591;52.532;13.348;2024-01-15T05:57:50;6.07;;;2.60;;
20861;SDS011;10591;52.532;13.348;2024-01-15T06:00:21;4.73;;;2.77;;
20861;SDS011;10591;52.532;13.348;2024-01-15T06:02:51;9.43;;;3.13;;
20861;SDS011;10591;52.532;13.348;2024-01-15T06:05:22;5.87;;;2.87;;
20861;SDS011;10591;52.532;13.348;2024-01-15T06:07:52;7.73;;;3.17;;
20861;SDS011;10591;52.532;13.348;2024-01-15T06:10:23;6.33;;;2.50;;
20861;SDS011;10591;52.532;13.348;2024-01-15T06:12:53;5.80;;;2.83;;
20861;SDS011;10591;52.532;13.348;2024-01-15T06:15:24;3.90;;;2.72;;
20861;SDS011;10591;52.532;13.348;2024-01-15T06:17:55;7.80;;;2.80;;
20861;SDS011;10591;52.532;13.348;2024-01-15T06:20:25;7.13;;;2.33;;
20861;SDS011;10591;52.532;13.348;2024-01-15T06:22:56;7.03;;;2.50;;
20861;SDS011;10591;52.532;13.348;2024-01-15T06:25:26;5.03;;;2.80;;
20861;SDS011;10591;52.532;13.348;2024-01-15T06:27:57;6.33;;;2.30;;
20861;SDS011;10591;52.532;13.348;2024-01-15T06:30:27;6.63;;;2.43;;
20861;SDS011;10591;52.532;13.348;2024-01-15T06:32:59;4.30;;;2.37;;
20861;SDS011;10591;52.532;13.348;2024-01-15T06:35:29;6.33;;;2.42;;
20861;SDS011;10591;52.532;13.348;2024-01-15T06:38:00;7.97;;;2.50;;
20861;SDS011;10591;52.532;13.348;2024-01-15T06:40:30;7.00;;;2.75;;
20861;SDS011;10591;52.532;13.348;2024-01-15T06:43:01;7.03;;;2.40;;
20861;SDS011;10591;52.532;13.348;2024-01-15T06:45:31;5.70;;;2.10;;
20861;SDS011;10591;52.532;13.348;2024-01-15T06:48:02;6.53;;;2.00;;
20861;SDS011;10591;52.532;13.348;2024-01-15T06:50:33;6.90;;;2.10;;
20861;SDS011;10591;52.532;13.348;2024-01-15T06:53:04;5.73;;;2.10;;
20861;SDS011;10591;52.532;13.348;2024-01-15T06:55:36;6.83;;;2.20;;
20861;SDS011;10591;52.532;13.348;2024-01-15T06:58:07;4.03;;;1.92;;
20861;SDS011;10591;52.532;13.348;2024-01-15T07:00:37;6.67;;;2.53;;
20861;SDS011;10591;52.532;13.348;2024-01-15T07:03:10;7.03;;;2.50;;
20861;SDS011;10591;52.532;13.348;2024-01-15T07:05:41;7.80;;;2.40;;
20861;SDS011;10591;52.532;13.348;2024-01-15T07:08:11;6.77;;;2.03;;
20861;SDS011;10591;52.532;13.348;2024-01-15T07:10:42;8.40;;;2.53;;
20861;SDS011;10591;52.532;13.348;2024-01-15T07:13:13;6.47;;;2.30;;
20861;SDS011;10591;52.532;13.348;2024-01-15T07:15:43;6.53;;;2.17;;
20861;SDS011;10591;52.532;13.348;2024-01-15T07:18:14;7.13;;;2.20;;
20861;SDS011;10591;52.532;13.348;2024-01-15T07:20:47;5.42;;;1.65;;
20861;SDS011;10591;52.532;13.348;2024-01-15T07:23:17;7.83;;;1.67;;
20861;SDS011;10591;52.532;13.348;2024-01-15T07:25:49;8.60;;;2.70;;
20861;SDS011;10591;52.532;13.348;2024-01-15T07:28:20;6.30;;;1.90;;
20861;SDS011;10591;52.532;13.348;2024-01-15T07:30:51;7.00;;;2.00;;
20861;SDS011;10591;52.532;13.348;2024-01-15T07:33:24;8.23;;;2.13;;
20861;SDS011;10591;52.532;13.348;2024-01-15T07:35:55;8.73;;;2.57;;
20861;SDS011;10591;52.532;13.348;2024-01-15T07:38:27;5.92;;;2.10;;
20861;SDS011;10591;52.532;13.348;2024-01-15T07:40:58;5.50;;;2.30;;
20861;SDS011;10591;52.532;13.348;2024-01-15T07:43:28;8.20;;;2.50;;
20861;SDS011;10591;52.532;13.348;2024-01-15T07:46:00;10.53;;;2.43;;
20861;SDS011;10591;52.532;13.348;2024-01-15T07:48:31;7.33;;;2.07;;
20861;SDS011;10591;52.532;13.348;2024-01-15T07:51:03;8.65;;;2.00;;
20861;SDS011;10591;52.532;13.348;2024-01-15T07:53:34;7.35;;;2.02;;
20861;SDS011;10591;52.532;13.348;2024-01-15T07:56:04;6.50;;;2.33;;
20861;SDS011;10591;52.532;13.348;2024-01-15T07:58:35;6.03;;;1.90;;
20861;SDS011;10591;52.532;13.348;2024-01-15T08:01:05;5.57;;;2.03;;
20861;SDS011;10591;52.532;13.348;2024-01-15T08:03:38;8.00;;;2.25;;
20861;SDS011;10591;52.532;13.348;2024-01-15T08:06:10;5.47;;;2.10;;
20861;SDS011;10591;52.532;13.348;2024-01-15T08:08:41;12.17;;;2.13;;
20861;SDS011;10591;52.532;13.348;2024-01-15T08:11:12;9.13;;;2.22;;
20861;SDS011;10591;52.532;13.348;2024-01-15T08:13:44;10.20;;;2.37;;
20861;SDS011;10591;52.532;13.348;2024-01-15T08:16:14;5.22;;;2.00;;
20861;SDS011;10591;52.532;13.348;2024-01-15T08:18:47;7.17;;;2.57;;
20861;SDS011;10591;52.532;13.348;2024-01-15T08:21:18;7.13;;;2.10;;
20861;SDS011;10591;52.532;13.348;2024-01-15T08:23:49;7.67;;;2.20;;
20861;SDS011;10591;52.532;13.348;2024-01-15T08:26:20;9.70;;;3.00;;
20861;SDS011;10591;52.532;13.348;2024-01-15T08:28:51;6.58;;;2.27;;
20861;SDS011;10591;52.532;13.348;2024-01-15T08:31:22;4.83;;;1.73;;
20861;SDS011;10591;52.532;13.348;2024-01-15T08:33:53;4.60;;;2.03;;
20861;SDS011;10591;52.532;13.348;2024-01-15T08:36:24;9.57;;;2.50;;
20861;SDS011;10591;52.532;13.348;2024-01-15T08:38:56;5.53;;;2.00;;
20861;SDS011;10591;52.532;13.348;2024-01-15T08:41:27;5.37;;;2.20;;
20861;SDS011;10591;52.532;13.348;2024-01-15T08:43:57;5.63;;;1.93;;
20861;SDS011;10591;52.532;13.348;2024-01-15T08:46:28;8.10;;;2.60;;
20861;SDS011;10591;52.532;13.348;2024-01-15T08:48:59;5.10;;;1.73;;
20861;SDS011;10591;52.532;13.348;2024-01-15T08:51:30;5.73;;;2.00;;
20861;SDS011;10591;52.532;13.348;2024-01-15T08:54:00;9.47;;;2.07;;
20861;SDS011;10591;52.532;13.348;2024-01-15T08:56:31;10.00;;;2.20;;
20861;SDS011;10591;52.532;13.348;2024-01-15T08:59:02;7.13;;;1.90;;
20861;SDS011;10591;52.532;13.348;2024-01-15T09:01:32;4.43;;;2.20;;
20861;SDS011;10591;52.532;13.348;2024-01-15T09:04:03;10.10;;;2.67;;
20861;SDS011;10591;52.532;13.348;2024-01-15T09:06:36;8.40;;;2.40;;
20861;SDS011;10591;52.532;13.348;2024-01-15T09:09:07;5.50;;;2.37;;
20861;SDS011;10591;52.532;13.348;2024-01-15T09:11:38;5.73;;;1.90;;
20861;SDS011;10591;52.532;13.348;2024-01-15T09:14:10;7.27;;;2.47;;
20861;SDS011;10591;52.532;13.348;2024-01-15T09:16:42;7.47;;;2.20;;
20861;SDS011;10591;52.532;13.348;2024-01-15T09:19:12;8.80;;;2.63;;
20861;SDS011;10591;52.532;13.348;2024-01-15T09:21:44;8.23;;;2.20;;
20861;SDS011;10591;52.532;13.348;2024-01-15T09:24:15;8.37;;;2.67;;
20861;SDS011;10591;52.532;13.348;2024-01-15T09:26:47;6.30;;;2.40;;
20861;SDS011;10591;52.532;13.348;2024-01-15T09:29:18;3.50;;;2.17;;
20861;SDS011;10591;52.532;13.348;2024-01-15T09:31:49;4.03;;;2.10;;
20861;SDS011;10591;52.532;13.348;2024-01-15T09:34:21;7.33;;;2.10;;
20861;SDS011;10591;52.532;13.348;2024-01-15T09:36:52;3.97;;;2.10;;
20861;SDS011;10591;52.532;13.348;2024-01-15T09:39:22;6.67;;;2.47;;
20861;SDS011;10591;52.532;13.348;2024-01-15T09:41:53;7.67;;;2.20;;
20861;SDS011;10591;52.532;13.348;2024-01-15T09:44:24;4.90;;;1.97;;
20861;SDS011;10591;52.532;13.348;2024-01-15T09:46:58;5.67;;;2.33;;
20861;SDS011;10591;52.532;13.348;2024-01-15T09:49:29;7.17;;;2.07;;
20861;SDS011;10591;52.532;13.348;2024-01-15T09:52:00;6.60;;;1.82;;
20861;SDS011;10591;52.532;13.348;2024-01-15T09:54:36;2.90;;;1.77;;
20861;SDS011;10591;52.532;13.348;2024-01-15T09:57:07;7.83;;;2.07;;
20861;SDS011;10591;52.532;13.348;2024-01-15T09:59:38;5.47;;;2.00;;
20861;SDS011;10591;52.532;13.348;2024-01-15T10:02:12;8.53;;;1.90;;
20861;SDS011;10591;52.532;13.348;2024-01-15T10:04:46;5.28;;;1.80;;
20861;SDS011;10591;52.532;13.348;2024-01-15T10:07:18;5.05;;;1.77;;
20861;SDS011;10591;52.532;13.348;2024-01-15T10:09:50;3.80;;;1.90;;
20861;SDS011;10591;52.532;13.348;2024-01-15T10:12:26;7.47;;;1.77;;
20861;SDS011;10591;52.532;13.348;2024-01-15T10:14:56;3.20;;;1.90;;
20861;SDS011;10591;52.532;13.348;2024-01-15T10:17:27;3.57;;;1.93;;
20861;SDS011;10591;52.532;13.348;2024-01-15T10:19:58;3.97;;;2.03;;
20861;SDS011;10591;52.532;13.348;2024-01-15T10:25:01;7.28;;;2.08;;
20861;SDS011;10591;52.532;13.348;2024-01-15T10:27:32;3.02;;;1.70;;
20861;SDS011;10591;52.532;13.348;2024-01-15T10:30:03;3.40;;;1.83;;
20861;SDS011;10591;52.532;13.348;2024-01-15T10:32:36;5.15;;;2.12;;
20861;SDS011;10591;52.532;13.348;2024-01-15T10:35:07;3.00;;;1.93;;
20861;SDS011;10591;52.532;13.348;2024-01-15T10:37:38;4.43;;;1.80;;
20861;SDS011;10591;52.532;13.348;2024-01-15T10:40:10;3.93;;;1.87;;
20861;SDS011;10591;52.532;13.348;2024-01-15T10:42:42;6.20;;;1.87;;
20861;SDS011;10591;52.532;13.348;2024-01-15T10:45:13;4.53;;;2.02;;
20861;SDS011;10591;52.532;13.348;2024-01-15T10:47:44;3.55;;;2.08;;
20861;SDS011;10591;52.532;13.348;2024-01-15T10:50:16;3.02;;;1.80;;
20861;SDS011;10591;52.532;13.348;2024-01-15T10:52:46;5.27;;;2.10;;
20861;SDS011;10591;52.532;13.348;2024-01-15T10:55:17;3.80;;;1.80;;
20861;SDS011;10591;52.532;13.348;2024-01-15T10:57:49;7.12;;;2.50;;
20861;SDS011;10591;52.532;13.348;2024-01-15T11:00:20;4.10;;;1.70;;
20861;SDS011;10591;52.532;13.348;2024-01-15T11:02:51;2.77;;;1.50;;
20861;SDS011;10591;52.532;13.348;2024-01-15T11:05:23;4.25;;;1.80;;
20861;SDS011;10591;52.532;13.348;2024-01-15T11:07:56;4.47;;;1.82;;
20861;SDS011;10591;52.532;13.348;2024-01-15T11:10:45;3.58;;;1.50;;
20861;SDS011;10591;52.532;13.348;2024-01-15T11:13:22;3.98;;;1.60;;
20861;SDS011;10591;52.532;13.348;2024-01-15T11:16:00;2.50;;;1.40;;
20861;SDS011;10591;52.532;13.348;2024-01-15T11:18:43;3.70;;;1.60;;
20861;SDS011;10591;52.532;13.348;2024-01-15T11:21:28;2.95;;;1.50;;
20861;SDS011;10591;52.532;13.348;2024-01-15T11:24:00;1.70;;;1.40;;
20861;SDS011;10591;52.532;13.348;2024-01-15T11:26:45;2.57;;;1.60;;
20861;SDS011;10591;52.532;13.348;2024-01-15T11:32:02;3.03;;;2.17;;
20861;SDS011;10591;52.532;13.348;2024-01-15T11:35:12;3.42;;;1.62;;
20861;SDS011;10591;52.532;13.348;2024-01-15T11:43:05;3.70;;;1.70;;
20861;SDS011;10591;52.532;13.348;2024-01-15T11:45:41;4.33;;;2.30;;
20861;SDS011;10591;52.532;13.348;2024-01-15T11:48:13;4.30;;;1.80;;
20861;SDS011;10591;52.532;13.348;2024-01-15T11:50:47;4.83;;;2.03;;
20861;SDS011;10591;52.532;13.348;2024-01-15T11:53:32;2.03;;;1.80;;
20861;SDS011;10591;52.532;13.348;2024-01-15T11:56:17;3.40;;;2.00;;
20861;SDS011;10591;52.532;13.348;2024-01-15T11:58:51;6.33;;;2.10;;
20861;SDS011;10591;52.532;13.348;2024-01-15T12:01:22;5.37;;;2.33;;
20861;SDS011;10591;52.532;13.348;2024-01-15T12:03:53;2.73;;;2.17;;
20861;SDS011;10591;52.532;13.348;2024-01-15T12:06:26;2.30;;;2.10;;
20861;SDS011;10591;52.532;13.348;2024-01-15T12:09:07;4.50;;;2.57;;
20861;SDS011;10591;52.532;13.348;2024-01-15T12:11:41;3.53;;;2.27;;
20861;SDS011;10591;52.532;13.348;2024-01-15T12:14:14;2.97;;;2.30;;
20861;SDS011;10591;52.532;13.348;2024-01-15T12:16:46;3.05;;;2.30;;
20861;SDS011;10591;52.532;13.348;2024-01-15T12:19:17;3.47;;;2.22;;
20861;SDS011;10591;52.532;13.348;2024-01-15T12:21:54;2.50;;;2.00;;
20861;SDS011;10591;52.532;13.348;2024-01-15T12:24:24;8.03;;;2.35;;
20861;SDS011;10591;52.532;13.348;2024-01-15T12:26:56;4.10;;;2.20;;
20861;SDS011;10591;52.532;13.348;2024-01-15T12:29:27;4.37;;;2.00;;
20861;SDS011;10591;52.532;13.348;2024-01-15T12:31:59;2.63;;;1.63;;
20861;SDS011;10591;52.532;13.348;2024-01-15T12:34:31;3.12;;;1.85;;
20861;SDS011;10591;52.532;13.348;2024-01-15T12:37:04;2.87;;;1.80;;
20861;SDS011;10591;52.532;13.348;2024-01-15T12:39:37;4.20;;;1.90;;
20861;SDS011;10591;52.532;13.348;2024-01-15T12:42:08;2.70;;;2.10;;
20861;SDS011;10591;52.532;13.348;2024-01-15T12:44:42;3.00;;;2.00;;
20861;SDS011;10591;52.532;13.348;2024-01-15T12:47:12;3.27;;;1.90;;
20861;SDS011;10591;52.532;13.348;2024-01-15T12:49:50;2.92;;;1.80;;
20861;SDS011;10591;52.532;13.348;2024-01-15T12:52:27;3.65;;;2.05;;
20861;SDS011;10591;52.532;13.348;2024-01-15T12:55:01;3.53;;;2.10;;
20861;SDS011;10591;52.532;13.348;2024-01-15T12:57:34;3.33;;;1.87;;
20861;SDS011;10591;52.532;13.348;2024-01-15T13:00:07;3.12;;;1.90;;
20861;SDS011;10591;52.532;13.348;2024-01-15T13:02:39;3.33;;;2.30;;
20861;SDS011;10591;52.532;13.348;2024-01-15T13:05:13;3.60;;;2.10;;
20861;SDS011;10591;52.532;13.348;2024-01-15T13:07:46;3.17;;;1.90;;
20861;SDS011;10591;52.532;13.348;2024-01-15T13:10:18;3.43;;;1.90;;
20861;SDS011;10591;52.532;13.348;2024-01-15T13:12:50;2.77;;;2.10;;
20861;SDS011;10591;52.532;13.348;2024-01-15T13:15:22;4.77;;;2.37;;
20861;SDS011;10591;52.532;13.348;2024-01-15T13:17:53;4.62;;;2.72;;
20861;SDS011;10591;52.532;13.348;2024-01-15T13:20:24;3.67;;;2.20;;
20861;SDS011;10591;52.532;13.348;2024-01-15T13:22:55;2.40;;;1.98;;
20861;SDS011;10591;52.532;13.348;2024-01-15T13:25:26;3.30;;;2.03;;
20861;SDS011;10591;52.532;13.348;2024-01-15T13:27:56;5.08;;;2.58;;
20861;SDS011;10591;52.532;13.348;2024-01-15T13:30:27;4.43;;;2.90;;
20861;SDS011;10591;52.532;13.348;2024-01-15T13:32:59;6.33;;;2.80;;
20861;SDS011;10591;52.532;13.348;2024-01-15T13:35:32;3.17;;;2.60;;
20861;SDS011;10591;52.532;13.348;2024-01-15T13:38:05;4.93;;;2.50;;
20861;SDS011;10591;52.532;13.348;2024-01-15T13:40:38;2.83;;;1.90;;
20861;SDS011;10591;52.532;13.348;2024-01-15T13:43:08;4.35;;;2.00;;
20861;SDS011;10591;52.532;13.348;2024-01-15T13:45:40;4.43;;;2.43;;
20861;SDS011;10591;52.532;13.348;2024-01-15T13:48:11;3.50;;;2.20;;
20861;SDS011;10591;52.532;13.348;2024-01-15T13:50:42;5.07;;;1.83;;
20861;SDS011;10591;52.532;13.348;2024-01-15T13:53:13;2.00;;;1.80;;
20861;SDS011;10591;52.532;13.348;2024-01-15T13:55:43;3.52;;;1.80;;
20861;SDS011;10591;52.532;13.348;2024-01-15T13:58:14;2.63;;;1.90;;
20861;SDS011;10591;52.532;13.348;2024-01-15T14:00:47;3.77;;;2.00;;
20861;SDS011;10591;52.532;13.348;2024-01-15T14:03:18;5.63;;;2.43;;
20861;SDS011;10591;52.532;13.348;2024-01-15T14:05:49;3.13;;;2.00;;
20861;SDS011;10591;52.532;13.348;2024-01-15T14:08:19;5.10;;;2.00;;
20861;SDS011;10591;52.532;13.348;2024-01-15T14:10:50;3.70;;;1.90;;
20861;SDS011;10591;52.532;13.348;2024-01-15T14:13:22;4.70;;;1.93;;
20861;SDS011;10591;52.532;13.348;2024-01-15T14:15:54;4.73;;;1.97;;
20861;SDS011;10591;52.532;13.348;2024-01-15T14:18:26;5.33;;;2.00;;
20861;SDS011;10591;52.532;13.348;2024-01-15T14:20:58;4.13;;;1.73;;
20861;SDS011;10591;52.532;13.348;2024-01-15T14:23:30;3.50;;;1.80;;
20861;SDS011;10591;52.532;13.348;2024-01-15T14:26:00;2.93;;;2.10;;
20861;SDS011;10591;52.532;13.348;2024-01-15T14:28:33;3.57;;;1.93;;
20861;SDS011;10591;52.532;13.348;2024-01-15T14:31:04;4.03;;;1.90;;
20861;SDS011;10591;52.532;13.348;2024-01-15T14:33:36;3.87;;;1.67;;
20861;SDS011;10591;52.532;13.348;2024-01-15T14:36:09;6.20;;;1.97;;
20861;SDS011;10591;52.532;13.348;2024-01-15T14:38:39;4.17;;;1.80;;
20861;SDS011;10591;52.532;13.348;2024-01-15T14:41:10;3.03;;;1.83;;
20861;SDS011;10591;52.532;13.348;2024-01-15T14:43:42;3.53;;;2.00;;
20861;SDS011;10591;52.532;13.348;2024-01-15T14:46:14;3.23;;;1.67;;
20861;SDS011;10591;52.532;13.348;2024-01-15T14:48:46;2.47;;;2.00;;
20861;SDS011;10591;52.532;13.348;2024-01-15T14:51:16;2.23;;;1.60;;
20861;SDS011;10591;52.532;13.348;2024-01-15T14:53:47;3.60;;;1.90;;
20861;SDS011;10591;52.532;13.348;2024-01-15T14:56:20;2.43;;;1.70;;
20861;SDS011;10591;52.532;13.348;2024-01-15T14:58:50;3.87;;;1.97;;
20861;SDS011;10591;52.532;13.348;2024-01-15T15:01:21;2.77;;;1.87;;
20861;SDS011;10591;52.532;13.348;2024-01-15T15:03:52;6.00;;;2.20;;